Viewbank (Arpnsa), Victoria

5:47 AM AEST on August 25, 2016 (GMT +1000)
Gallery Gate Road | | Change Station

Elev 193 ft 37.73 °S, 145.10 °E | Updated 9 minutes ago

Mostly Cloudy
Mostly Cloudy
48.0 °F
Feels Like 48 °F
N
0.6
Wind Variable Wind from West
Gusts 1.2 mph

Today
High -- | Low -- °F
--% Chance of Precip.
Yesterday
High -- | Low -- °F
Precip. -- in
Pressure 29.92 in
Visibility 6.2 miles
Clouds Few 2300 ft
Mostly Cloudy 3900 ft
Windchill 48 °F
Dew Point 42 °F
Humidity 78%
Rainfall 0.00 in
Snow Depth Not available.
6:51 AM 5:52 PM
Waning Gibbous, 54% visible
METAR YMML 241930Z 27009KT 9999 FEW023 BKN039 06/05 Q1013 NOSIG
Pressure 29.92 in
Visibility 6.2 miles
Clouds Few 2300 ft
Mostly Cloudy 3900 ft
Windchill 48 °F
Dew Point 42 °F
Humidity 78%
Rainfall 0.00 in
Snow Depth Not available.
6:51 AM 5:52 PM
Waning Gibbous, 54% visible
METAR YMML 241930Z 27009KT 9999 FEW023 BKN039 06/05 Q1013 NOSIG

10-Day Weather Forecast

Almanac

Astronomy

Aug. 25, 2016 Rise Set
Actual Time
Civil Twilight
Nautical Twilight
Astronomical Twilight
Moon
Length of Visible Light
Length of Day
Tomorrow will be .
, % of the Moon is Illuminated

Today's Extremes

Country Highs Country Lows

Community

WunderPhotos

Upload Photos

1,934,690 photos uploaded!

WunderBlog® & News

Nearby

Air Quality

  Air Quality AQ Index Pollutant
Not available.

Snow Depth

Station Depth Elevation

Earthquake Activity

City Distance Mag. Time & Date
Minimum magnitude displayed is 2.5.

Coastal Water Temperatures

Place Temperature

Stations

Nearby Weather Stations

Station Location Temp. Windchill Dew Point Humidity Wind Precip. Elev Updated Type